sensor_id;sensor_type;location;lat;lon;timestamp;pressure;altitude;pressure_sealevel;temperature;humidity
5952;BME280;3001;42.622;23.194;2023-04-15T00:00:35;90555.09;;;8.93;100.00
5952;BME280;3001;42.622;23.194;2023-04-15T00:03:02;90556.91;;;9.01;100.00
5952;BME280;3001;42.622;23.194;2023-04-15T00:05:30;90547.13;;;9.07;100.00
5952;BME280;3001;42.622;23.194;2023-04-15T00:07:57;90557.19;;;9.17;99.25
5952;BME280;3001;42.622;23.194;2023-04-15T00:10:24;90533.88;;;9.08;98.21
5952;BME280;3001;42.622;23.194;2023-04-15T00:12:52;90555.50;;;9.21;98.16
5952;BME280;3001;42.622;23.194;2023-04-15T00:15:19;90550.75;;;9.23;99.29
5952;BME280;3001;42.622;23.194;2023-04-15T00:17:45;90559.59;;;9.22;99.85
5952;BME280;3001;42.622;23.194;2023-04-15T00:20:12;90548.72;;;9.37;100.00
5952;BME280;3001;42.622;23.194;2023-04-15T00:22:39;90563.69;;;9.31;100.00
5952;BME280;3001;42.622;23.194;2023-04-15T00:25:07;90574.03;;;9.40;100.00
5952;BME280;3001;42.622;23.194;2023-04-15T00:27:34;90573.25;;;9.39;99.91
5952;BME280;3001;42.622;23.194;2023-04-15T00:30:02;90580.88;;;9.44;96.71
5952;BME280;3001;42.622;23.194;2023-04-15T00:32:29;90573.09;;;9.53;96.86
5952;BME280;3001;42.622;23.194;2023-04-15T00:34:56;90573.56;;;9.46;97.54
5952;BME280;3001;42.622;23.194;2023-04-15T00:37:22;90574.66;;;9.37;97.85
5952;BME280;3001;42.622;23.194;2023-04-15T00:39:49;90562.03;;;9.18;97.58
5952;BME280;3001;42.622;23.194;2023-04-15T00:42:17;90549.09;;;9.18;96.62
5952;BME280;3001;42.622;23.194;2023-04-15T00:44:46;90546.81;;;9.17;97.15
5952;BME280;3001;42.622;23.194;2023-04-15T00:47:15;90550.00;;;9.22;96.95
5952;BME280;3001;42.622;23.194;2023-04-15T00:49:42;90552.88;;;9.29;98.13
5952;BME280;3001;42.622;23.194;2023-04-15T00:52:09;90561.19;;;9.52;96.76
5952;BME280;3001;42.622;23.194;2023-04-15T00:54:36;90559.25;;;9.40;96.56
5952;BME280;3001;42.622;23.194;2023-04-15T00:57:04;90567.34;;;9.30;96.46
5952;BME280;3001;42.622;23.194;2023-04-15T00:59:32;90561.25;;;9.35;96.60
5952;BME280;3001;42.622;23.194;2023-04-15T01:01:59;90556.84;;;9.18;96.60
5952;BME280;3001;42.622;23.194;2023-04-15T01:04:28;90562.50;;;9.20;97.23
5952;BME280;3001;42.622;23.194;2023-04-15T01:06:56;90561.28;;;9.26;96.30
5952;BME280;3001;42.622;23.194;2023-04-15T01:09:22;90556.56;;;9.11;96.75
5952;BME280;3001;42.622;23.194;2023-04-15T01:11:49;90563.47;;;8.90;97.52
5952;BME280;3001;42.622;23.194;2023-04-15T01:14:16;90555.25;;;8.88;98.27
5952;BME280;3001;42.622;23.194;2023-04-15T01:16:43;90554.34;;;8.84;98.28
5952;BME280;3001;42.622;23.194;2023-04-15T01:19:10;90557.25;;;8.74;98.97
5952;BME280;3001;42.622;23.194;2023-04-15T01:21:39;90553.47;;;8.72;99.86
5952;BME280;3001;42.622;23.194;2023-04-15T01:24:09;90547.66;;;8.83;99.22
5952;BME280;3001;42.622;23.194;2023-04-15T01:26:38;90557.41;;;8.86;98.81
5952;BME280;3001;42.622;23.194;2023-04-15T01:29:05;90548.41;;;8.84;98.62
5952;BME280;3001;42.622;23.194;2023-04-15T01:31:32;90548.56;;;8.87;98.34
5952;BME280;3001;42.622;23.194;2023-04-15T01:33:59;90556.75;;;8.98;97.39
5952;BME280;3001;42.622;23.194;2023-04-15T01:36:26;90550.97;;;8.92;97.46
5952;BME280;3001;42.622;23.194;2023-04-15T01:38:54;90552.34;;;8.98;97.24
5952;BME280;3001;42.622;23.194;2023-04-15T01:41:24;90565.28;;;8.98;97.03
5952;BME280;3001;42.622;23.194;2023-04-15T01:43:52;90549.78;;;8.90;97.06
5952;BME280;3001;42.622;23.194;2023-04-15T01:46:19;90561.66;;;8.91;97.10
5952;BME280;3001;42.622;23.194;2023-04-15T01:48:46;90558.94;;;8.70;97.82
5952;BME280;3001;42.622;23.194;2023-04-15T01:51:12;90553.00;;;8.70;98.68
5952;BME280;3001;42.622;23.194;2023-04-15T01:53:39;90549.63;;;8.78;98.02
5952;BME280;3001;42.622;23.194;2023-04-15T01:56:06;90557.25;;;8.74;97.98
5952;BME280;3001;42.622;23.194;2023-04-15T01:58:33;90560.00;;;8.78;97.84
5952;BME280;3001;42.622;23.194;2023-04-15T02:01:01;90553.00;;;8.61;98.95
5952;BME280;3001;42.622;23.194;2023-04-15T02:03:29;90553.00;;;8.70;98.95
5952;BME280;3001;42.622;23.194;2023-04-15T02:05:55;90556.97;;;8.42;100.00
5952;BME280;3001;42.622;23.194;2023-04-15T02:08:22;90558.63;;;8.38;100.00
5952;BME280;3001;42.622;23.194;2023-04-15T02:10:49;90549.03;;;8.47;100.00
5952;BME280;3001;42.622;23.194;2023-04-15T02:13:16;90547.06;;;8.69;99.02
5952;BME280;3001;42.622;23.194;2023-04-15T02:15:46;90548.56;;;8.70;99.12
5952;BME280;3001;42.622;23.194;2023-04-15T02:18:14;90552.84;;;8.75;98.95
5952;BME280;3001;42.622;23.194;2023-04-15T02:20:41;90553.00;;;8.78;99.12
5952;BME280;3001;42.622;23.194;2023-04-15T02:23:09;90548.56;;;8.79;97.78
5952;BME280;3001;42.622;23.194;2023-04-15T02:25:36;90547.94;;;8.90;96.55
5952;BME280;3001;42.622;23.194;2023-04-15T02:28:03;90548.44;;;8.58;98.08
5952;BME280;3001;42.622;23.194;2023-04-15T02:30:30;90551.50;;;8.60;97.98
5952;BME280;3001;42.622;23.194;2023-04-15T02:32:57;90550.72;;;8.77;97.29
5952;BME280;3001;42.622;23.194;2023-04-15T02:35:26;90558.75;;;8.92;96.20
5952;BME280;3001;42.622;23.194;2023-04-15T02:37:52;90553.41;;;8.97;95.36
5952;BME280;3001;42.622;23.194;2023-04-15T02:40:19;90561.84;;;8.69;96.28
5952;BME280;3001;42.622;23.194;2023-04-15T02:42:46;90560.00;;;8.78;95.97
5952;BME280;3001;42.622;23.194;2023-04-15T02:45:13;90555.44;;;8.50;96.57
5952;BME280;3001;42.622;23.194;2023-04-15T02:47:39;90554.53;;;8.29;98.26
5952;BME280;3001;42.622;23.194;2023-04-15T02:50:09;90553.00;;;8.70;96.87
5952;BME280;3001;42.622;23.194;2023-04-15T02:52:39;90549.06;;;8.39;97.87
5952;BME280;3001;42.622;23.194;2023-04-15T02:55:07;90558.03;;;8.33;98.03
5952;BME280;3001;42.622;23.194;2023-04-15T02:57:34;90551.78;;;8.25;98.09
5952;BME280;3001;42.622;23.194;2023-04-15T03:00:01;90557.22;;;8.15;98.37
5952;BME280;3001;42.622;23.194;2023-04-15T03:02:32;90563.81;;;8.21;98.36
5952;BME280;3001;42.622;23.194;2023-04-15T03:04:59;90567.13;;;8.13;98.83
5952;BME280;3001;42.622;23.194;2023-04-15T03:07:26;90570.16;;;8.15;99.27
5952;BME280;3001;42.622;23.194;2023-04-15T03:09:54;90566.66;;;8.11;99.47
5952;BME280;3001;42.622;23.194;2023-04-15T03:12:21;90574.88;;;8.13;100.00
5952;BME280;3001;42.622;23.194;2023-04-15T03:14:48;90581.69;;;7.92;100.00
5952;BME280;3001;42.622;23.194;2023-04-15T03:17:14;90583.03;;;7.90;100.00
5952;BME280;3001;42.622;23.194;2023-04-15T03:19:41;90589.13;;;7.94;100.00
5952;BME280;3001;42.622;23.194;2023-04-15T03:22:08;90585.78;;;7.85;100.00
5952;BME280;3001;42.622;23.194;2023-04-15T03:24:35;90594.44;;;7.89;100.00
5952;BME280;3001;42.622;23.194;2023-04-15T03:27:03;90606.94;;;7.95;100.00
5952;BME280;3001;42.622;23.194;2023-04-15T03:29:30;90606.47;;;7.93;100.00
5952;BME280;3001;42.622;23.194;2023-04-15T03:31:57;90597.84;;;7.98;99.93
5952;BME280;3001;42.622;23.194;2023-04-15T03:34:23;90606.47;;;7.85;100.00
5952;BME280;3001;42.622;23.194;2023-04-15T03:36:50;90610.28;;;7.96;100.00
5952;BME280;3001;42.622;23.194;2023-04-15T03:39:17;90608.94;;;8.07;100.00
5952;BME280;3001;42.622;23.194;2023-04-15T03:41:44;90617.31;;;8.04;98.37
5952;BME280;3001;42.622;23.194;2023-04-15T03:44:12;90619.25;;;7.98;98.80
5952;BME280;3001;42.622;23.194;2023-04-15T03:46:39;90617.44;;;7.90;99.36
5952;BME280;3001;42.622;23.194;2023-04-15T03:49:06;90617.31;;;8.04;99.78
5952;BME280;3001;42.622;23.194;2023-04-15T03:51:33;90615.00;;;8.02;100.00
5952;BME280;3001;42.622;23.194;2023-04-15T03:53:59;90614.25;;;8.02;99.46
5952;BME280;3001;42.622;23.194;2023-04-15T03:56:26;90609.09;;;8.02;98.64
5952;BME280;3001;42.622;23.194;2023-04-15T03:58:53;90614.28;;;8.10;98.77
5952;BME280;3001;42.622;23.194;2023-04-15T04:01:21;90615.19;;;8.06;98.46
5952;BME280;3001;42.622;23.194;2023-04-15T04:03:48;90615.63;;;7.99;99.86
5952;BME280;3001;42.622;23.194;2023-04-15T04:06:15;90622.44;;;7.95;100.00
5952;BME280;3001;42.622;23.194;2023-04-15T04:08:41;90627.78;;;7.99;100.00
5952;BME280;3001;42.622;23.194;2023-04-15T04:11:08;90626.00;;;8.16;99.65
5952;BME280;3001;42.622;23.194;2023-04-15T04:13:35;90625.00;;;8.26;99.22
5952;BME280;3001;42.622;23.194;2023-04-15T04:16:02;90626.94;;;8.20;99.36
5952;BME280;3001;42.622;23.194;2023-04-15T04:18:31;90628.81;;;8.28;97.92
5952;BME280;3001;42.622;23.194;2023-04-15T04:20:57;90632.31;;;8.41;96.75
5952;BME280;3001;42.622;23.194;2023-04-15T04:23:24;90635.38;;;8.51;96.31
5952;BME280;3001;42.622;23.194;2023-04-15T04:25:51;90637.16;;;8.34;96.58
5952;BME280;3001;42.622;23.194;2023-04-15T04:28:18;90637.00;;;8.22;96.97
5952;BME280;3001;42.622;23.194;2023-04-15T04:30:44;90633.97;;;8.28;96.58
5952;BME280;3001;42.622;23.194;2023-04-15T04:33:11;90637.09;;;8.17;96.85
5952;BME280;3001;42.622;23.194;2023-04-15T04:35:39;90625.84;;;8.13;97.49
5952;BME280;3001;42.622;23.194;2023-04-15T04:38:06;90639.22;;;8.15;97.08
5952;BME280;3001;42.622;23.194;2023-04-15T04:40:33;90642.84;;;8.05;97.41
5952;BME280;3001;42.622;23.194;2023-04-15T04:42:59;90635.66;;;7.94;98.13
5952;BME280;3001;42.622;23.194;2023-04-15T04:45:26;90641.47;;;7.99;98.62
5952;BME280;3001;42.622;23.194;2023-04-15T04:47:53;90637.06;;;8.00;98.88
5952;BME280;3001;42.622;23.194;2023-04-15T04:50:20;90640.69;;;8.29;97.46
5952;BME280;3001;42.622;23.194;2023-04-15T04:52:48;90644.47;;;8.32;96.84
5952;BME280;3001;42.622;23.194;2023-04-15T04:55:14;90647.44;;;8.17;97.36
5952;BME280;3001;42.622;23.194;2023-04-15T04:57:41;90653.53;;;8.12;97.67
5952;BME280;3001;42.622;23.194;2023-04-15T05:00:08;90654.69;;;8.28;97.20
5952;BME280;3001;42.622;23.194;2023-04-15T05:02:36;90658.63;;;8.34;97.40
5952;BME280;3001;42.622;23.194;2023-04-15T05:05:04;90656.50;;;8.36;97.37
5952;BME280;3001;42.622;23.194;2023-04-15T05:07:30;90662.44;;;8.37;97.31
5952;BME280;3001;42.622;23.194;2023-04-15T05:09:59;90670.66;;;8.47;96.43
5952;BME280;3001;42.622;23.194;2023-04-15T05:12:26;90670.38;;;8.49;96.54
5952;BME280;3001;42.622;23.194;2023-04-15T05:14:52;90676.91;;;8.46;96.98
5952;BME280;3001;42.622;23.194;2023-04-15T05:17:19;90676.47;;;8.52;96.22
5952;BME280;3001;42.622;23.194;2023-04-15T05:19:46;90682.25;;;8.50;95.52
5952;BME280;3001;42.622;23.194;2023-04-15T05:22:13;90674.50;;;8.58;93.89
5952;BME280;3001;42.622;23.194;2023-04-15T05:24:40;90664.63;;;8.68;93.13
5952;BME280;3001;42.622;23.194;2023-04-15T05:27:08;90672.88;;;8.96;90.74
5952;BME280;3001;42.622;23.194;2023-04-15T05:29:35;90680.03;;;9.07;90.99
5952;BME280;3001;42.622;23.194;2023-04-15T05:32:02;90667.97;;;9.11;89.06
5952;BME280;3001;42.622;23.194;2023-04-15T05:34:29;90672.84;;;9.21;86.81
5952;BME280;3001;42.622;23.194;2023-04-15T05:36:55;90671.44;;;9.41;87.02
5952;BME280;3001;42.622;23.194;2023-04-15T05:39:22;90671.75;;;9.39;84.62
5952;BME280;3001;42.622;23.194;2023-04-15T05:41:49;90679.50;;;9.48;84.41
5952;BME280;3001;42.622;23.194;2023-04-15T05:44:17;90684.38;;;9.58;85.13
5952;BME280;3001;42.622;23.194;2023-04-15T05:46:43;90686.16;;;9.74;85.65
5952;BME280;3001;42.622;23.194;2023-04-15T05:49:10;90685.25;;;9.79;82.60
5952;BME280;3001;42.622;23.194;2023-04-15T05:51:37;90684.91;;;9.89;78.99
5952;BME280;3001;42.622;23.194;2023-04-15T05:54:04;90694.94;;;10.16;78.48
5952;BME280;3001;42.622;23.194;2023-04-15T05:56:31;90696.75;;;10.52;78.41
5952;BME280;3001;42.622;23.194;2023-04-15T05:58:57;90703.09;;;10.63;77.55
5952;BME280;3001;42.622;23.194;2023-04-15T06:01:26;90707.53;;;10.63;77.41
5952;BME280;3001;42.622;23.194;2023-04-15T06:03:53;90699.38;;;10.73;77.63
5952;BME280;3001;42.622;23.194;2023-04-15T06:06:19;90705.41;;;10.85;74.54
5952;BME280;3001;42.622;23.194;2023-04-15T06:08:46;90710.25;;;10.95;72.79
5952;BME280;3001;42.622;23.194;2023-04-15T06:11:13;90711.31;;;11.15;74.14
5952;BME280;3001;42.622;23.194;2023-04-15T06:13:39;90717.66;;;11.05;73.18
5952;BME280;3001;42.622;23.194;2023-04-15T06:16:06;90721.41;;;11.16;71.26
5952;BME280;3001;42.622;23.194;2023-04-15T06:18:34;90729.59;;;11.27;71.62
5952;BME280;3001;42.622;23.194;2023-04-15T06:21:01;90734.38;;;11.37;70.94
5952;BME280;3001;42.622;23.194;2023-04-15T06:23:28;90734.31;;;11.45;70.04
5952;BME280;3001;42.622;23.194;2023-04-15T06:25:54;90742.38;;;11.52;68.03
5952;BME280;3001;42.622;23.194;2023-04-15T06:28:21;90747.09;;;11.59;68.17
5952;BME280;3001;42.622;23.194;2023-04-15T06:30:48;90744.94;;;11.61;68.15
5952;BME280;3001;42.622;23.194;2023-04-15T06:33:15;90755.16;;;11.66;69.66
5952;BME280;3001;42.622;23.194;2023-04-15T06:35:43;90753.38;;;11.58;67.05
5952;BME280;3001;42.622;23.194;2023-04-15T06:38:10;90764.44;;;11.87;68.40
5952;BME280;3001;42.622;23.194;2023-04-15T06:40:36;90759.69;;;11.89;68.06
5952;BME280;3001;42.622;23.194;2023-04-15T06:43:03;90765.25;;;12.00;68.41
5952;BME280;3001;42.622;23.194;2023-04-15T06:45:30;90763.06;;;12.02;64.92
5952;BME280;3001;42.622;23.194;2023-04-15T06:47:57;90768.56;;;12.20;68.50
5952;BME280;3001;42.622;23.194;2023-04-15T06:50:23;90766.81;;;12.24;65.41
5952;BME280;3001;42.622;23.194;2023-04-15T06:52:52;90759.00;;;12.24;66.53
5952;BME280;3001;42.622;23.194;2023-04-15T06:55:19;90765.78;;;12.25;64.08
5952;BME280;3001;42.622;23.194;2023-04-15T06:57:46;90757.97;;;12.37;65.39
5952;BME280;3001;42.622;23.194;2023-04-15T07:00:13;90766.47;;;12.46;66.75
5952;BME280;3001;42.622;23.194;2023-04-15T07:02:40;90763.06;;;12.46;65.02
5952;BME280;3001;42.622;23.194;2023-04-15T07:05:06;90768.75;;;12.60;63.75
5952;BME280;3001;42.622;23.194;2023-04-15T07:07:34;90757.09;;;12.33;65.14
5952;BME280;3001;42.622;23.194;2023-04-15T07:10:03;90758.88;;;12.53;67.47
5952;BME280;3001;42.622;23.194;2023-04-15T07:12:30;90770.16;;;12.81;65.51
5952;BME280;3001;42.622;23.194;2023-04-15T07:14:57;90772.34;;;12.91;65.57
5952;BME280;3001;42.622;23.194;2023-04-15T07:17:23;90776.91;;;13.06;65.66
5952;BME280;3001;42.622;23.194;2023-04-15T07:19:50;90782.34;;;13.01;64.96
5952;BME280;3001;42.622;23.194;2023-04-15T07:22:17;90785.63;;;13.10;64.72
5952;BME280;3001;42.622;23.194;2023-04-15T07:24:44;90792.88;;;13.17;63.00
5952;BME280;3001;42.622;23.194;2023-04-15T07:27:12;90783.88;;;13.14;63.92
5952;BME280;3001;42.622;23.194;2023-04-15T07:29:39;90790.59;;;13.39;60.54
5952;BME280;3001;42.622;23.194;2023-04-15T07:32:06;90788.03;;;13.67;63.15
5952;BME280;3001;42.622;23.194;2023-04-15T07:34:34;90792.22;;;13.83;61.22
5952;BME280;3001;42.622;23.194;2023-04-15T07:37:01;90786.03;;;13.87;60.43
5952;BME280;3001;42.622;23.194;2023-04-15T07:39:28;90788.69;;;14.03;61.91
5952;BME280;3001;42.622;23.194;2023-04-15T07:41:55;90785.63;;;14.01;60.23
5952;BME280;3001;42.622;23.194;2023-04-15T07:44:25;90791.84;;;13.96;60.24
5952;BME280;3001;42.622;23.194;2023-04-15T07:46:52;90801.56;;;13.84;57.81
5952;BME280;3001;42.622;23.194;2023-04-15T07:49:19;90803.19;;;13.88;58.46
5952;BME280;3001;42.622;23.194;2023-04-15T07:51:45;90802.81;;;14.02;59.40
5952;BME280;3001;42.622;23.194;2023-04-15T07:54:13;90811.31;;;13.99;60.84
5952;BME280;3001;42.622;23.194;2023-04-15T07:56:40;90810.72;;;13.90;59.13
5952;BME280;3001;42.622;23.194;2023-04-15T07:59:06;90817.97;;;13.96;59.59
5952;BME280;3001;42.622;23.194;2023-04-15T08:01:35;90809.09;;;14.13;59.72
5952;BME280;3001;42.622;23.194;2023-04-15T08:04:02;90811.28;;;14.11;59.46
5952;BME280;3001;42.622;23.194;2023-04-15T08:06:28;90818.00;;;14.24;59.90
5952;BME280;3001;42.622;23.194;2023-04-15T08:08:55;90820.22;;;14.37;59.87
5952;BME280;3001;42.622;23.194;2023-04-15T08:11:22;90818.25;;;14.19;58.43
5952;BME280;3001;42.622;23.194;2023-04-15T08:13:48;90818.81;;;14.40;61.17
5952;BME280;3001;42.622;23.194;2023-04-15T08:16:17;90818.78;;;14.67;59.75
5952;BME280;3001;42.622;23.194;2023-04-15T08:18:46;90814.81;;;14.73;58.98
5952;BME280;3001;42.622;23.194;2023-04-15T08:21:13;90829.91;;;14.64;58.39
5952;BME280;3001;42.622;23.194;2023-04-15T08:23:40;90818.44;;;14.69;59.09
5952;BME280;3001;42.622;23.194;2023-04-15T08:26:07;90825.38;;;14.77;57.37
5952;BME280;3001;42.622;23.194;2023-04-15T08:28:34;90822.75;;;14.77;56.49
5952;BME280;3001;42.622;23.194;2023-04-15T08:31:00;90815.16;;;14.87;54.57
5952;BME280;3001;42.622;23.194;2023-04-15T08:33:27;90821.75;;;14.97;49.27
5952;BME280;3001;42.622;23.194;2023-04-15T08:35:55;90822.94;;;15.15;51.67
5952;BME280;3001;42.622;23.194;2023-04-15T08:38:22;90816.34;;;15.36;49.86
5952;BME280;3001;42.622;23.194;2023-04-15T08:40:49;90812.13;;;15.47;50.11
5952;BME280;3001;42.622;23.194;2023-04-15T08:43:20;90823.03;;;15.49;51.10
5952;BME280;3001;42.622;23.194;2023-04-15T08:45:49;90818.38;;;15.43;48.50
5952;BME280;3001;42.622;23.194;2023-04-15T08:48:16;90813.66;;;15.02;47.93
5952;BME280;3001;42.622;23.194;2023-04-15T08:50:43;90813.13;;;14.96;47.96
5952;BME280;3001;42.622;23.194;2023-04-15T08:53:11;90815.16;;;15.03;49.75
5952;BME280;3001;42.622;23.194;2023-04-15T08:55:42;90804.88;;;14.94;52.49
5952;BME280;3001;42.622;23.194;2023-04-15T08:58:10;90806.31;;;15.07;52.49
5952;BME280;3001;42.622;23.194;2023-04-15T09:00:37;90798.44;;;15.23;53.46
5952;BME280;3001;42.622;23.194;2023-04-15T09:03:05;90804.94;;;15.60;52.02
5952;BME280;3001;42.622;23.194;2023-04-15T09:05:32;90794.50;;;15.78;52.50
5952;BME280;3001;42.622;23.194;2023-04-15T09:07:59;90805.13;;;16.04;50.27
5952;BME280;3001;42.622;23.194;2023-04-15T09:10:27;90801.13;;;16.29;44.72
5952;BME280;3001;42.622;23.194;2023-04-15T09:12:55;90795.75;;;16.41;44.98
5952;BME280;3001;42.622;23.194;2023-04-15T09:15:23;90788.44;;;16.50;47.29
5952;BME280;3001;42.622;23.194;2023-04-15T09:17:50;90789.88;;;16.89;44.20
5952;BME280;3001;42.622;23.194;2023-04-15T09:20:17;90786.44;;;16.85;43.59
5952;BME280;3001;42.622;23.194;2023-04-15T09:22:45;90791.38;;;16.90;44.30
5952;BME280;3001;42.622;23.194;2023-04-15T09:25:28;90790.22;;;16.88;40.95
5952;BME280;3001;42.622;23.194;2023-04-15T09:27:56;90792.91;;;16.69;40.20
5952;BME280;3001;42.622;23.194;2023-04-15T09:30:24;90803.50;;;16.76;40.48
5952;BME280;3001;42.622;23.194;2023-04-15T09:32:51;90802.97;;;16.67;42.19
5952;BME280;3001;42.622;23.194;2023-04-15T09:35:19;90805.56;;;16.86;41.38
5952;BME280;3001;42.622;23.194;2023-04-15T09:37:46;90799.31;;;16.94;39.85
5952;BME280;3001;42.622;23.194;2023-04-15T09:40:13;90796.63;;;16.90;43.77
5952;BME280;3001;42.622;23.194;2023-04-15T09:42:54;90812.03;;;17.14;42.58
5952;BME280;3001;42.622;23.194;2023-04-15T09:45:22;90803.88;;;16.97;41.73
5952;BME280;3001;42.622;23.194;2023-04-15T09:47:49;90818.78;;;16.93;38.38
5952;BME280;3001;42.622;23.194;2023-04-15T09:50:17;90824.03;;;16.93;39.46
5952;BME280;3001;42.622;23.194;2023-04-15T09:52:44;90821.97;;;16.60;39.80
5952;BME280;3001;42.622;23.194;2023-04-15T09:55:12;90827.94;;;16.61;39.88
5952;BME280;3001;42.622;23.194;2023-04-15T09:57:40;90829.44;;;16.39;42.71
5952;BME280;3001;42.622;23.194;2023-04-15T10:00:10;90823.56;;;16.46;41.55
5952;BME280;3001;42.622;23.194;2023-04-15T10:02:39;90817.63;;;16.49;43.14
5952;BME280;3001;42.622;23.194;2023-04-15T10:05:07;90819.47;;;16.67;44.21
5952;BME280;3001;42.622;23.194;2023-04-15T10:07:36;90817.22;;;16.66;42.21
5952;BME280;3001;42.622;23.194;2023-04-15T10:10:06;90808.75;;;16.76;40.84
5952;BME280;3001;42.622;23.194;2023-04-15T10:12:36;90804.72;;;16.82;42.94
5952;BME280;3001;42.622;23.194;2023-04-15T10:15:04;90795.75;;;17.05;43.56
5952;BME280;3001;42.622;23.194;2023-04-15T10:17:33;90791.28;;;17.06;40.52
5952;BME280;3001;42.622;23.194;2023-04-15T10:20:02;90791.25;;;17.28;41.45
5952;BME280;3001;42.622;23.194;2023-04-15T10:22:29;90797.06;;;17.37;41.97
5952;BME280;3001;42.622;23.194;2023-04-15T10:24:57;90786.81;;;17.32;42.89
5952;BME280;3001;42.622;23.194;2023-04-15T10:27:25;90791.97;;;17.48;43.09
5952;BME280;3001;42.622;23.194;2023-04-15T10:29:53;90789.56;;;17.17;42.88
5952;BME280;3001;42.622;23.194;2023-04-15T10:32:20;90785.66;;;17.07;42.67
5952;BME280;3001;42.622;23.194;2023-04-15T10:34:49;90788.69;;;17.09;40.54
5952;BME280;3001;42.622;23.194;2023-04-15T10:37:20;90791.03;;;17.14;43.69
5952;BME280;3001;42.622;23.194;2023-04-15T10:39:47;90796.28;;;17.37;43.92
5952;BME280;3001;42.622;23.194;2023-04-15T10:42:16;90794.53;;;17.44;42.32
5952;BME280;3001;42.622;23.194;2023-04-15T10:44:44;90788.09;;;17.42;43.73
5952;BME280;3001;42.622;23.194;2023-04-15T10:47:13;90789.03;;;17.30;41.23
5952;BME280;3001;42.622;23.194;2023-04-15T10:49:47;90787.69;;;17.40;42.23
5952;BME280;3001;42.622;23.194;2023-04-15T10:52:17;90791.56;;;17.23;42.81
5952;BME280;3001;42.622;23.194;2023-04-15T10:54:47;90795.69;;;17.02;44.92
5952;BME280;3001;42.622;23.194;2023-04-15T10:57:16;90779.53;;;17.22;44.12
5952;BME280;3001;42.622;23.194;2023-04-15T11:00:01;90786.66;;;17.44;43.56
5952;BME280;3001;42.622;23.194;2023-04-15T11:02:44;90791.25;;;17.28;42.76
5952;BME280;3001;42.622;23.194;2023-04-15T11:05:12;90790.16;;;17.51;42.21
5952;BME280;3001;42.622;23.194;2023-04-15T11:07:47;90792.63;;;17.67;40.86
5952;BME280;3001;42.622;23.194;2023-04-15T11:13:27;90782.47;;;17.95;41.74
5952;BME280;3001;42.622;23.194;2023-04-15T11:16:00;90780.41;;;18.07;40.18
5952;BME280;3001;42.622;23.194;2023-04-15T11:18:32;90779.56;;;18.29;38.48
5952;BME280;3001;42.622;23.194;2023-04-15T11:21:01;90776.78;;;18.19;37.17
5952;BME280;3001;42.622;23.194;2023-04-15T11:23:38;90774.50;;;18.47;37.16
5952;BME280;3001;42.622;23.194;2023-04-15T11:26:07;90786.19;;;18.53;39.19
5952;BME280;3001;42.622;23.194;2023-04-15T11:28:36;90776.97;;;18.33;39.05
5952;BME280;3001;42.622;23.194;2023-04-15T11:31:09;90780.03;;;18.38;39.57
5952;BME280;3001;42.622;23.194;2023-04-15T11:33:36;90800.44;;;18.48;38.23
5952;BME280;3001;42.622;23.194;2023-04-15T11:36:03;90784.63;;;18.45;38.13
5952;BME280;3001;42.622;23.194;2023-04-15T11:38:33;90773.66;;;18.39;38.64
5952;BME280;3001;42.622;23.194;2023-04-15T11:41:00;90770.75;;;18.48;38.68
5952;BME280;3001;42.622;23.194;2023-04-15T11:43:26;90776.56;;;18.64;37.66
5952;BME280;3001;42.622;23.194;2023-04-15T11:46:00;90768.22;;;18.58;37.63
5952;BME280;3001;42.622;23.194;2023-04-15T11:48:28;90766.00;;;18.60;38.15
5952;BME280;3001;42.622;23.194;2023-04-15T11:50:56;90779.47;;;18.55;35.44
5952;BME280;3001;42.622;23.194;2023-04-15T11:53:23;90772.94;;;18.42;36.89
5952;BME280;3001;42.622;23.194;2023-04-15T11:55:52;90781.25;;;18.48;35.54
5952;BME280;3001;42.622;23.194;2023-04-15T11:58:22;90769.75;;;18.59;35.02
5952;BME280;3001;42.622;23.194;2023-04-15T12:00:50;90767.50;;;18.61;38.14
5952;BME280;3001;42.622;23.194;2023-04-15T12:03:21;90770.19;;;18.65;38.06
5952;BME280;3001;42.622;23.194;2023-04-15T12:06:11;90760.03;;;18.67;36.98
5952;BME280;3001;42.622;23.194;2023-04-15T12:08:50;90770.38;;;18.86;38.38
5952;BME280;3001;42.622;23.194;2023-04-15T12:11:20;90763.59;;;18.85;37.54
5952;BME280;3001;42.622;23.194;2023-04-15T12:13:48;90769.56;;;18.78;38.03
5952;BME280;3001;42.622;23.194;2023-04-15T12:16:17;90770.28;;;18.75;35.66
5952;BME280;3001;42.622;23.194;2023-04-15T12:18:45;90777.06;;;18.76;37.80
5952;BME280;3001;42.622;23.194;2023-04-15T12:21:12;90773.94;;;18.64;37.28
5952;BME280;3001;42.622;23.194;2023-04-15T12:23:39;90767.56;;;18.68;35.82
5952;BME280;3001;42.622;23.194;2023-04-15T12:26:13;90769.56;;;18.78;35.17
5952;BME280;3001;42.622;23.194;2023-04-15T12:28:41;90775.88;;;18.70;32.62
5952;BME280;3001;42.622;23.194;2023-04-15T12:31:08;90779.88;;;18.57;34.19
5952;BME280;3001;42.622;23.194;2023-04-15T12:33:35;90780.72;;;18.32;32.96
5952;BME280;3001;42.622;23.194;2023-04-15T12:36:03;90771.47;;;18.45;33.51
5952;BME280;3001;42.622;23.194;2023-04-15T12:38:30;90776.88;;;18.59;36.20
5952;BME280;3001;42.622;23.194;2023-04-15T12:40:57;90783.78;;;18.70;33.47
5952;BME280;3001;42.622;23.194;2023-04-15T12:43:24;90760.78;;;18.64;34.21
5952;BME280;3001;42.622;23.194;2023-04-15T12:45:52;90771.72;;;18.69;33.92
5952;BME280;3001;42.622;23.194;2023-04-15T12:48:19;90780.53;;;18.51;34.78
5952;BME280;3001;42.622;23.194;2023-04-15T12:50:46;90782.84;;;18.56;34.67
5952;BME280;3001;42.622;23.194;2023-04-15T12:53:13;90769.41;;;18.28;35.34
5952;BME280;3001;42.622;23.194;2023-04-15T12:55:39;90772.06;;;18.31;33.87
5952;BME280;3001;42.622;23.194;2023-04-15T12:58:06;90771.47;;;18.45;37.03
5952;BME280;3001;42.622;23.194;2023-04-15T13:00:33;90774.50;;;18.47;34.36
5952;BME280;3001;42.622;23.194;2023-04-15T13:03:01;90771.94;;;18.54;35.96
5952;BME280;3001;42.622;23.194;2023-04-15T13:05:28;90781.44;;;18.65;34.86
5952;BME280;3001;42.622;23.194;2023-04-15T13:07:55;90776.56;;;18.67;35.17
5952;BME280;3001;42.622;23.194;2023-04-15T13:10:22;90766.16;;;18.78;35.70
5952;BME280;3001;42.622;23.194;2023-04-15T13:12:48;90768.53;;;18.90;34.34
5952;BME280;3001;42.622;23.194;2023-04-15T13:15:17;90769.59;;;18.82;33.01
5952;BME280;3001;42.622;23.194;2023-04-15T13:17:45;90768.56;;;18.93;35.50
5952;BME280;3001;42.622;23.194;2023-04-15T13:20:14;90773.25;;;19.10;33.96